sensor_id;sensor_type;location;lat;lon;timestamp;temperature;humidity
6307;DHT22;3186;54.062;9.962;2024-02-16T00:02:02;11.90;99.90
6307;DHT22;3186;54.062;9.962;2024-02-16T00:04:27;11.90;99.90
6307;DHT22;3186;54.062;9.962;2024-02-16T00:06:53;11.80;99.90
6307;DHT22;3186;54.062;9.962;2024-02-16T00:09:19;11.80;99.90
6307;DHT22;3186;54.062;9.962;2024-02-16T00:11:44;11.80;99.90
6307;DHT22;3186;54.062;9.962;2024-02-16T00:14:10;11.80;99.90
6307;DHT22;3186;54.062;9.962;2024-02-16T00:16:36;11.80;99.90
6307;DHT22;3186;54.062;9.962;2024-02-16T00:19:02;11.70;99.90
6307;DHT22;3186;54.062;9.962;2024-02-16T00:21:28;11.70;99.90
6307;DHT22;3186;54.062;9.962;2024-02-16T00:23:54;11.70;99.90
6307;DHT22;3186;54.062;9.962;2024-02-16T00:26:21;11.60;99.90
6307;DHT22;3186;54.062;9.962;2024-02-16T00:28:47;11.60;99.90
6307;DHT22;3186;54.062;9.962;2024-02-16T00:31:12;11.60;99.90
6307;DHT22;3186;54.062;9.962;2024-02-16T00:33:38;11.50;99.90
6307;DHT22;3186;54.062;9.962;2024-02-16T00:36:04;11.60;99.90
6307;DHT22;3186;54.062;9.962;2024-02-16T00:38:29;11.50;99.90
6307;DHT22;3186;54.062;9.962;2024-02-16T00:40:55;11.50;99.90
6307;DHT22;3186;54.062;9.962;2024-02-16T00:43:21;11.50;99.90
6307;DHT22;3186;54.062;9.962;2024-02-16T00:45:46;11.50;99.90
6307;DHT22;3186;54.062;9.962;2024-02-16T00:48:13;11.40;99.90
6307;DHT22;3186;54.062;9.962;2024-02-16T00:50:39;11.40;99.90
6307;DHT22;3186;54.062;9.962;2024-02-16T00:53:05;11.40;99.90
6307;DHT22;3186;54.062;9.962;2024-02-16T00:55:30;11.40;99.90
6307;DHT22;3186;54.062;9.962;2024-02-16T00:57:56;11.40;99.90
6307;DHT22;3186;54.062;9.962;2024-02-16T01:00:22;11.30;99.90
6307;DHT22;3186;54.062;9.962;2024-02-16T01:02:51;11.30;99.90
6307;DHT22;3186;54.062;9.962;2024-02-16T01:05:18;11.30;99.90
6307;DHT22;3186;54.062;9.962;2024-02-16T01:07:44;11.30;99.90
6307;DHT22;3186;54.062;9.962;2024-02-16T01:10:11;11.30;99.90
6307;DHT22;3186;54.062;9.962;2024-02-16T01:12:37;11.30;99.90
6307;DHT22;3186;54.062;9.962;2024-02-16T01:15:04;11.30;99.90
6307;DHT22;3186;54.062;9.962;2024-02-16T01:17:29;11.30;99.90
6307;DHT22;3186;54.062;9.962;2024-02-16T01:19:55;11.20;99.90
6307;DHT22;3186;54.062;9.962;2024-02-16T01:22:22;11.20;99.90
6307;DHT22;3186;54.062;9.962;2024-02-16T01:24:48;11.20;99.90
6307;DHT22;3186;54.062;9.962;2024-02-16T01:27:14;11.20;99.90
6307;DHT22;3186;54.062;9.962;2024-02-16T01:29:41;11.20;99.90
6307;DHT22;3186;54.062;9.962;2024-02-16T01:32:07;11.20;99.90
6307;DHT22;3186;54.062;9.962;2024-02-16T01:34:32;11.20;99.90
6307;DHT22;3186;54.062;9.962;2024-02-16T01:36:58;11.20;99.90
6307;DHT22;3186;54.062;9.962;2024-02-16T01:39:24;11.20;99.90
6307;DHT22;3186;54.062;9.962;2024-02-16T01:41:50;11.20;99.90
6307;DHT22;3186;54.062;9.962;2024-02-16T01:44:16;11.20;99.90
6307;DHT22;3186;54.062;9.962;2024-02-16T01:46:42;11.10;99.90
6307;DHT22;3186;54.062;9.962;2024-02-16T01:49:09;11.10;99.90
6307;DHT22;3186;54.062;9.962;2024-02-16T01:51:36;11.10;99.90
6307;DHT22;3186;54.062;9.962;2024-02-16T01:54:02;11.10;99.90
6307;DHT22;3186;54.062;9.962;2024-02-16T01:56:29;11.10;99.90
6307;DHT22;3186;54.062;9.962;2024-02-16T01:58:54;11.10;99.90
6307;DHT22;3186;54.062;9.962;2024-02-16T02:01:21;11.10;99.90
6307;DHT22;3186;54.062;9.962;2024-02-16T02:03:47;11.10;99.90
6307;DHT22;3186;54.062;9.962;2024-02-16T02:06:13;11.10;99.90
6307;DHT22;3186;54.062;9.962;2024-02-16T02:08:39;11.10;99.90
6307;DHT22;3186;54.062;9.962;2024-02-16T02:11:05;11.00;99.90
6307;DHT22;3186;54.062;9.962;2024-02-16T02:13:31;11.00;99.90
6307;DHT22;3186;54.062;9.962;2024-02-16T02:15:58;11.00;99.90
6307;DHT22;3186;54.062;9.962;2024-02-16T02:18:24;10.90;99.90
6307;DHT22;3186;54.062;9.962;2024-02-16T02:20:50;11.00;99.90
6307;DHT22;3186;54.062;9.962;2024-02-16T02:23:16;10.90;99.90
6307;DHT22;3186;54.062;9.962;2024-02-16T02:25:41;11.00;99.90
6307;DHT22;3186;54.062;9.962;2024-02-16T02:28:07;11.00;99.90
6307;DHT22;3186;54.062;9.962;2024-02-16T02:30:33;10.90;99.90
6307;DHT22;3186;54.062;9.962;2024-02-16T02:32:59;10.90;99.90
6307;DHT22;3186;54.062;9.962;2024-02-16T02:35:25;10.90;99.90
6307;DHT22;3186;54.062;9.962;2024-02-16T02:37:50;10.90;99.90
6307;DHT22;3186;54.062;9.962;2024-02-16T02:40:16;10.90;99.90
6307;DHT22;3186;54.062;9.962;2024-02-16T02:42:42;10.90;99.90
6307;DHT22;3186;54.062;9.962;2024-02-16T02:45:08;10.90;99.90
6307;DHT22;3186;54.062;9.962;2024-02-16T02:47:34;11.00;99.90
6307;DHT22;3186;54.062;9.962;2024-02-16T02:49:59;10.90;99.90
6307;DHT22;3186;54.062;9.962;2024-02-16T02:52:26;10.90;99.90
6307;DHT22;3186;54.062;9.962;2024-02-16T02:54:51;10.90;99.90
6307;DHT22;3186;54.062;9.962;2024-02-16T02:57:17;10.80;99.90
6307;DHT22;3186;54.062;9.962;2024-02-16T02:59:43;10.90;99.90
6307;DHT22;3186;54.062;9.962;2024-02-16T03:02:08;10.80;99.90
6307;DHT22;3186;54.062;9.962;2024-02-16T03:04:35;10.80;99.90
6307;DHT22;3186;54.062;9.962;2024-02-16T03:07:00;10.80;99.90
6307;DHT22;3186;54.062;9.962;2024-02-16T03:09:26;10.80;99.90
6307;DHT22;3186;54.062;9.962;2024-02-16T03:11:51;10.90;99.90
6307;DHT22;3186;54.062;9.962;2024-02-16T03:14:18;10.80;99.90
6307;DHT22;3186;54.062;9.962;2024-02-16T03:16:44;10.90;99.90
6307;DHT22;3186;54.062;9.962;2024-02-16T03:19:09;10.80;99.90
6307;DHT22;3186;54.062;9.962;2024-02-16T03:21:35;10.80;99.90
6307;DHT22;3186;54.062;9.962;2024-02-16T03:24:04;10.80;99.90
6307;DHT22;3186;54.062;9.962;2024-02-16T03:26:30;10.80;99.90
6307;DHT22;3186;54.062;9.962;2024-02-16T03:28:56;10.80;99.90
6307;DHT22;3186;54.062;9.962;2024-02-16T03:31:23;10.80;99.90
6307;DHT22;3186;54.062;9.962;2024-02-16T03:33:50;10.70;99.90
6307;DHT22;3186;54.062;9.962;2024-02-16T03:36:17;10.80;99.90
6307;DHT22;3186;54.062;9.962;2024-02-16T03:38:44;10.70;99.90
6307;DHT22;3186;54.062;9.962;2024-02-16T03:41:14;10.70;99.90
6307;DHT22;3186;54.062;9.962;2024-02-16T03:51:02;10.70;99.90
6307;DHT22;3186;54.062;9.962;2024-02-16T03:53:30;10.70;99.90
6307;DHT22;3186;54.062;9.962;2024-02-16T03:55:56;10.70;99.90
6307;DHT22;3186;54.062;9.962;2024-02-16T03:58:22;10.60;99.90
6307;DHT22;3186;54.062;9.962;2024-02-16T04:00:48;10.60;99.90
6307;DHT22;3186;54.062;9.962;2024-02-16T04:03:18;10.70;99.90
6307;DHT22;3186;54.062;9.962;2024-02-16T04:05:44;10.60;99.90
6307;DHT22;3186;54.062;9.962;2024-02-16T04:08:10;10.60;99.90
6307;DHT22;3186;54.062;9.962;2024-02-16T04:10:35;10.60;99.90
6307;DHT22;3186;54.062;9.962;2024-02-16T04:13:02;10.60;99.90
6307;DHT22;3186;54.062;9.962;2024-02-16T04:15:28;10.60;99.90
6307;DHT22;3186;54.062;9.962;2024-02-16T04:17:54;10.70;99.90
6307;DHT22;3186;54.062;9.962;2024-02-16T04:20:20;10.60;99.90
6307;DHT22;3186;54.062;9.962;2024-02-16T04:22:45;10.60;99.90
6307;DHT22;3186;54.062;9.962;2024-02-16T04:25:11;10.60;99.90
6307;DHT22;3186;54.062;9.962;2024-02-16T04:27:37;10.60;99.90
6307;DHT22;3186;54.062;9.962;2024-02-16T04:30:04;10.60;99.90
6307;DHT22;3186;54.062;9.962;2024-02-16T04:32:30;10.70;99.90
6307;DHT22;3186;54.062;9.962;2024-02-16T04:34:56;10.60;99.90
6307;DHT22;3186;54.062;9.962;2024-02-16T04:37:23;10.60;99.90
6307;DHT22;3186;54.062;9.962;2024-02-16T04:39:49;10.60;99.90
6307;DHT22;3186;54.062;9.962;2024-02-16T04:42:15;10.60;99.90
6307;DHT22;3186;54.062;9.962;2024-02-16T04:44:40;10.60;99.90
6307;DHT22;3186;54.062;9.962;2024-02-16T04:47:06;10.50;99.90
6307;DHT22;3186;54.062;9.962;2024-02-16T04:49:32;10.50;99.90
6307;DHT22;3186;54.062;9.962;2024-02-16T04:51:58;10.50;99.90
6307;DHT22;3186;54.062;9.962;2024-02-16T04:54:23;10.50;99.90
6307;DHT22;3186;54.062;9.962;2024-02-16T04:56:50;10.50;99.90
6307;DHT22;3186;54.062;9.962;2024-02-16T04:59:16;10.50;99.90
6307;DHT22;3186;54.062;9.962;2024-02-16T05:01:45;10.50;99.90
6307;DHT22;3186;54.062;9.962;2024-02-16T05:04:11;10.50;99.90
6307;DHT22;3186;54.062;9.962;2024-02-16T05:06:45;10.60;99.90
6307;DHT22;3186;54.062;9.962;2024-02-16T05:09:12;10.50;99.90
6307;DHT22;3186;54.062;9.962;2024-02-16T05:11:45;10.50;99.90
6307;DHT22;3186;54.062;9.962;2024-02-16T05:14:11;10.50;99.90
6307;DHT22;3186;54.062;9.962;2024-02-16T05:16:45;10.50;99.90
6307;DHT22;3186;54.062;9.962;2024-02-16T05:19:11;10.50;99.90
6307;DHT22;3186;54.062;9.962;2024-02-16T05:21:37;10.50;99.90
6307;DHT22;3186;54.062;9.962;2024-02-16T05:24:03;10.50;99.90
6307;DHT22;3186;54.062;9.962;2024-02-16T05:26:29;10.40;99.90
6307;DHT22;3186;54.062;9.962;2024-02-16T05:28:54;10.40;99.90
6307;DHT22;3186;54.062;9.962;2024-02-16T05:31:20;10.40;99.90
6307;DHT22;3186;54.062;9.962;2024-02-16T05:33:50;10.40;99.90
6307;DHT22;3186;54.062;9.962;2024-02-16T05:36:22;10.40;99.90
6307;DHT22;3186;54.062;9.962;2024-02-16T05:38:53;10.40;99.90
6307;DHT22;3186;54.062;9.962;2024-02-16T05:41:21;10.40;99.90
6307;DHT22;3186;54.062;9.962;2024-02-16T05:43:47;10.40;99.90
6307;DHT22;3186;54.062;9.962;2024-02-16T05:46:17;10.30;99.90
6307;DHT22;3186;54.062;9.962;2024-02-16T05:48:44;10.30;99.90
6307;DHT22;3186;54.062;9.962;2024-02-16T05:51:11;10.30;99.90
6307;DHT22;3186;54.062;9.962;2024-02-16T05:53:40;10.30;99.90
6307;DHT22;3186;54.062;9.962;2024-02-16T05:56:07;10.30;99.90
6307;DHT22;3186;54.062;9.962;2024-02-16T05:58:32;10.30;99.90
6307;DHT22;3186;54.062;9.962;2024-02-16T06:00:59;10.30;99.90
6307;DHT22;3186;54.062;9.962;2024-02-16T06:03:24;10.30;99.90
6307;DHT22;3186;54.062;9.962;2024-02-16T06:05:51;10.30;99.90
6307;DHT22;3186;54.062;9.962;2024-02-16T06:08:17;10.30;99.90
6307;DHT22;3186;54.062;9.962;2024-02-16T06:10:43;10.20;99.90
6307;DHT22;3186;54.062;9.962;2024-02-16T06:13:09;10.20;99.90
6307;DHT22;3186;54.062;9.962;2024-02-16T06:15:34;10.20;99.90
6307;DHT22;3186;54.062;9.962;2024-02-16T06:18:01;10.20;99.90
6307;DHT22;3186;54.062;9.962;2024-02-16T06:20:27;10.20;99.90
6307;DHT22;3186;54.062;9.962;2024-02-16T06:22:52;10.20;99.90
6307;DHT22;3186;54.062;9.962;2024-02-16T06:25:18;10.20;99.90
6307;DHT22;3186;54.062;9.962;2024-02-16T06:27:44;10.20;99.90
6307;DHT22;3186;54.062;9.962;2024-02-16T06:30:11;10.20;99.90
6307;DHT22;3186;54.062;9.962;2024-02-16T06:32:39;10.20;99.90
6307;DHT22;3186;54.062;9.962;2024-02-16T06:35:07;10.20;99.90
6307;DHT22;3186;54.062;9.962;2024-02-16T06:37:33;10.10;99.90
6307;DHT22;3186;54.062;9.962;2024-02-16T06:39:59;10.10;99.90
6307;DHT22;3186;54.062;9.962;2024-02-16T06:42:24;10.10;99.90
6307;DHT22;3186;54.062;9.962;2024-02-16T06:44:50;10.10;99.90
6307;DHT22;3186;54.062;9.962;2024-02-16T06:47:16;10.10;99.90
6307;DHT22;3186;54.062;9.962;2024-02-16T06:49:41;10.10;99.90
6307;DHT22;3186;54.062;9.962;2024-02-16T06:52:07;10.00;99.90
6307;DHT22;3186;54.062;9.962;2024-02-16T06:54:34;10.00;99.90
6307;DHT22;3186;54.062;9.962;2024-02-16T06:57:00;10.10;99.90
6307;DHT22;3186;54.062;9.962;2024-02-16T06:59:27;10.10;99.90
6307;DHT22;3186;54.062;9.962;2024-02-16T07:01:52;10.00;99.90
6307;DHT22;3186;54.062;9.962;2024-02-16T07:04:18;10.00;99.90
6307;DHT22;3186;54.062;9.962;2024-02-16T07:06:44;10.00;99.90
6307;DHT22;3186;54.062;9.962;2024-02-16T07:09:09;10.00;99.90
6307;DHT22;3186;54.062;9.962;2024-02-16T07:11:35;10.00;99.90
6307;DHT22;3186;54.062;9.962;2024-02-16T07:14:01;10.00;99.90
6307;DHT22;3186;54.062;9.962;2024-02-16T07:16:28;10.00;99.90
6307;DHT22;3186;54.062;9.962;2024-02-16T07:18:53;10.00;99.90
6307;DHT22;3186;54.062;9.962;2024-02-16T07:21:19;10.00;99.90
6307;DHT22;3186;54.062;9.962;2024-02-16T07:23:47;10.00;99.90
6307;DHT22;3186;54.062;9.962;2024-02-16T07:26:13;10.00;99.90
6307;DHT22;3186;54.062;9.962;2024-02-16T07:28:39;10.00;99.90
6307;DHT22;3186;54.062;9.962;2024-02-16T07:31:05;10.10;99.90
6307;DHT22;3186;54.062;9.962;2024-02-16T07:33:31;10.00;99.90
6307;DHT22;3186;54.062;9.962;2024-02-16T07:35:57;10.10;99.90
6307;DHT22;3186;54.062;9.962;2024-02-16T07:38:23;10.10;99.90
6307;DHT22;3186;54.062;9.962;2024-02-16T07:40:49;10.10;99.90
6307;DHT22;3186;54.062;9.962;2024-02-16T07:43:16;10.10;99.90
6307;DHT22;3186;54.062;9.962;2024-02-16T07:45:42;10.10;99.90
6307;DHT22;3186;54.062;9.962;2024-02-16T07:48:08;10.20;99.90
6307;DHT22;3186;54.062;9.962;2024-02-16T07:50:34;10.20;99.90
6307;DHT22;3186;54.062;9.962;2024-02-16T07:52:59;10.20;99.90
6307;DHT22;3186;54.062;9.962;2024-02-16T07:55:25;10.20;99.90
6307;DHT22;3186;54.062;9.962;2024-02-16T07:57:51;10.20;99.90
6307;DHT22;3186;54.062;9.962;2024-02-16T08:00:17;10.30;99.90
6307;DHT22;3186;54.062;9.962;2024-02-16T08:02:43;10.30;99.90
6307;DHT22;3186;54.062;9.962;2024-02-16T08:05:11;10.30;99.90
6307;DHT22;3186;54.062;9.962;2024-02-16T08:07:38;10.30;99.90
6307;DHT22;3186;54.062;9.962;2024-02-16T08:10:04;10.30;99.90
6307;DHT22;3186;54.062;9.962;2024-02-16T08:12:30;10.40;99.90
6307;DHT22;3186;54.062;9.962;2024-02-16T08:14:57;10.50;99.90
6307;DHT22;3186;54.062;9.962;2024-02-16T08:17:24;10.40;99.90
6307;DHT22;3186;54.062;9.962;2024-02-16T08:19:53;10.40;99.90
6307;DHT22;3186;54.062;9.962;2024-02-16T08:22:19;10.40;99.90
6307;DHT22;3186;54.062;9.962;2024-02-16T08:24:45;10.40;99.90
6307;DHT22;3186;54.062;9.962;2024-02-16T08:27:12;10.50;99.90
6307;DHT22;3186;54.062;9.962;2024-02-16T08:29:41;10.50;99.90
6307;DHT22;3186;54.062;9.962;2024-02-16T08:32:07;10.60;99.90
6307;DHT22;3186;54.062;9.962;2024-02-16T08:34:34;10.60;99.90
6307;DHT22;3186;54.062;9.962;2024-02-16T08:37:03;10.60;99.90
6307;DHT22;3186;54.062;9.962;2024-02-16T08:39:29;10.60;99.90
6307;DHT22;3186;54.062;9.962;2024-02-16T08:41:58;10.70;99.90
6307;DHT22;3186;54.062;9.962;2024-02-16T08:44:24;10.80;99.90
6307;DHT22;3186;54.062;9.962;2024-02-16T08:46:50;10.80;99.90
6307;DHT22;3186;54.062;9.962;2024-02-16T08:49:16;10.80;99.90
6307;DHT22;3186;54.062;9.962;2024-02-16T08:51:43;10.90;99.90
6307;DHT22;3186;54.062;9.962;2024-02-16T08:54:09;10.90;99.90
6307;DHT22;3186;54.062;9.962;2024-02-16T08:56:35;10.90;99.90
6307;DHT22;3186;54.062;9.962;2024-02-16T08:59:03;11.00;99.90
6307;DHT22;3186;54.062;9.962;2024-02-16T09:01:33;11.10;99.90
6307;DHT22;3186;54.062;9.962;2024-02-16T09:03:59;11.10;99.90
6307;DHT22;3186;54.062;9.962;2024-02-16T09:06:25;11.00;99.90
6307;DHT22;3186;54.062;9.962;2024-02-16T09:08:51;11.20;99.90
6307;DHT22;3186;54.062;9.962;2024-02-16T09:11:17;11.20;99.90
6307;DHT22;3186;54.062;9.962;2024-02-16T09:13:43;11.20;99.90
6307;DHT22;3186;54.062;9.962;2024-02-16T09:16:08;11.20;99.90
6307;DHT22;3186;54.062;9.962;2024-02-16T09:18:34;11.20;99.90
6307;DHT22;3186;54.062;9.962;2024-02-16T09:21:02;11.30;99.90
6307;DHT22;3186;54.062;9.962;2024-02-16T09:23:28;11.30;99.90
6307;DHT22;3186;54.062;9.962;2024-02-16T09:25:54;11.40;99.90
6307;DHT22;3186;54.062;9.962;2024-02-16T09:28:20;11.40;99.90
6307;DHT22;3186;54.062;9.962;2024-02-16T09:30:46;11.40;99.90
6307;DHT22;3186;54.062;9.962;2024-02-16T09:33:12;11.50;99.90
6307;DHT22;3186;54.062;9.962;2024-02-16T09:35:39;11.50;99.90
6307;DHT22;3186;54.062;9.962;2024-02-16T09:38:05;11.50;99.90
6307;DHT22;3186;54.062;9.962;2024-02-16T09:40:31;11.40;99.90
6307;DHT22;3186;54.062;9.962;2024-02-16T09:42:56;11.50;99.90
6307;DHT22;3186;54.062;9.962;2024-02-16T09:45:24;11.40;99.90
6307;DHT22;3186;54.062;9.962;2024-02-16T09:47:52;11.40;99.90
6307;DHT22;3186;54.062;9.962;2024-02-16T09:50:19;11.50;99.90
6307;DHT22;3186;54.062;9.962;2024-02-16T09:52:50;11.50;99.90
6307;DHT22;3186;54.062;9.962;2024-02-16T09:55:16;11.50;99.90
6307;DHT22;3186;54.062;9.962;2024-02-16T09:57:43;11.60;99.90
6307;DHT22;3186;54.062;9.962;2024-02-16T10:00:10;11.70;99.90
6307;DHT22;3186;54.062;9.962;2024-02-16T10:02:45;11.70;99.90
6307;DHT22;3186;54.062;9.962;2024-02-16T10:07:43;11.90;99.90
6307;DHT22;3186;54.062;9.962;2024-02-16T10:10:28;11.90;99.90
6307;DHT22;3186;54.062;9.962;2024-02-16T10:13:05;11.90;99.90
6307;DHT22;3186;54.062;9.962;2024-02-16T10:15:32;12.00;99.90
6307;DHT22;3186;54.062;9.962;2024-02-16T10:18:02;12.10;99.90
6307;DHT22;3186;54.062;9.962;2024-02-16T10:20:29;12.20;99.90
6307;DHT22;3186;54.062;9.962;2024-02-16T10:23:07;12.20;99.90
6307;DHT22;3186;54.062;9.962;2024-02-16T10:25:34;12.30;99.90
6307;DHT22;3186;54.062;9.962;2024-02-16T10:28:04;12.30;99.90
6307;DHT22;3186;54.062;9.962;2024-02-16T10:30:37;12.40;99.90
6307;DHT22;3186;54.062;9.962;2024-02-16T10:33:04;12.30;99.90
6307;DHT22;3186;54.062;9.962;2024-02-16T10:35:31;12.30;99.90
6307;DHT22;3186;54.062;9.962;2024-02-16T10:38:03;12.30;99.90
6307;DHT22;3186;54.062;9.962;2024-02-16T10:40:34;12.30;99.90
6307;DHT22;3186;54.062;9.962;2024-02-16T10:43:06;12.30;99.90
6307;DHT22;3186;54.062;9.962;2024-02-16T10:45:34;12.20;99.90
6307;DHT22;3186;54.062;9.962;2024-02-16T10:48:01;12.30;99.90
6307;DHT22;3186;54.062;9.962;2024-02-16T10:50:27;12.30;99.90
6307;DHT22;3186;54.062;9.962;2024-02-16T10:52:54;12.30;99.90
6307;DHT22;3186;54.062;9.962;2024-02-16T10:55:21;12.30;99.90
6307;DHT22;3186;54.062;9.962;2024-02-16T10:57:47;12.20;99.90
6307;DHT22;3186;54.062;9.962;2024-02-16T11:00:15;12.20;99.90
6307;DHT22;3186;54.062;9.962;2024-02-16T11:03:01;12.10;99.90
6307;DHT22;3186;54.062;9.962;2024-02-16T11:05:39;12.20;99.90
6307;DHT22;3186;54.062;9.962;2024-02-16T11:08:15;12.30;99.90
6307;DHT22;3186;54.062;9.962;2024-02-16T11:10:53;12.20;99.90
6307;DHT22;3186;54.062;9.962;2024-02-16T11:13:23;12.30;99.90
6307;DHT22;3186;54.062;9.962;2024-02-16T11:16:02;12.30;99.90
6307;DHT22;3186;54.062;9.962;2024-02-16T11:18:32;12.40;99.90
6307;DHT22;3186;54.062;9.962;2024-02-16T11:21:02;12.50;99.90
6307;DHT22;3186;54.062;9.962;2024-02-16T11:23:31;12.50;99.90
6307;DHT22;3186;54.062;9.962;2024-02-16T11:26:04;12.60;99.90
6307;DHT22;3186;54.062;9.962;2024-02-16T11:28:32;12.70;99.90
6307;DHT22;3186;54.062;9.962;2024-02-16T11:30:58;12.70;99.90
6307;DHT22;3186;54.062;9.962;2024-02-16T11:33:24;12.60;99.90
6307;DHT22;3186;54.062;9.962;2024-02-16T11:35:57;12.60;99.90
6307;DHT22;3186;54.062;9.962;2024-02-16T11:38:23;12.70;99.90
6307;DHT22;3186;54.062;9.962;2024-02-16T11:41:08;12.80;99.90
6307;DHT22;3186;54.062;9.962;2024-02-16T11:43:34;13.00;99.90
6307;DHT22;3186;54.062;9.962;2024-02-16T11:46:10;12.90;99.90
6307;DHT22;3186;54.062;9.962;2024-02-16T11:48:35;12.90;99.90
6307;DHT22;3186;54.062;9.962;2024-02-16T11:51:04;13.00;99.90
6307;DHT22;3186;54.062;9.962;2024-02-16T11:53:31;13.10;99.90
6307;DHT22;3186;54.062;9.962;2024-02-16T11:55:57;13.10;99.90
6307;DHT22;3186;54.062;9.962;2024-02-16T11:58:24;13.20;99.90
6307;DHT22;3186;54.062;9.962;2024-02-16T12:00:50;13.40;99.90
6307;DHT22;3186;54.062;9.962;2024-02-16T12:03:20;13.30;99.90
6307;DHT22;3186;54.062;9.962;2024-02-16T12:05:56;13.30;99.90
6307;DHT22;3186;54.062;9.962;2024-02-16T12:08:22;13.40;99.90
6307;DHT22;3186;54.062;9.962;2024-02-16T12:10:49;13.40;99.90
6307;DHT22;3186;54.062;9.962;2024-02-16T12:13:19;13.50;99.90
6307;DHT22;3186;54.062;9.962;2024-02-16T12:15:50;13.40;99.90
6307;DHT22;3186;54.062;9.962;2024-02-16T12:18:26;13.50;99.90
6307;DHT22;3186;54.062;9.962;2024-02-16T12:21:03;13.60;99.90
6307;DHT22;3186;54.062;9.962;2024-02-16T12:23:31;13.60;99.90
6307;DHT22;3186;54.062;9.962;2024-02-16T12:25:58;13.80;99.90
6307;DHT22;3186;54.062;9.962;2024-02-16T12:28:25;13.70;99.90
6307;DHT22;3186;54.062;9.962;2024-02-16T12:30:52;13.70;99.90
6307;DHT22;3186;54.062;9.962;2024-02-16T12:33:18;13.80;99.90
6307;DHT22;3186;54.062;9.962;2024-02-16T12:35:44;13.80;99.90
6307;DHT22;3186;54.062;9.962;2024-02-16T12:38:11;13.80;99.90
6307;DHT22;3186;54.062;9.962;2024-02-16T12:40:36;13.90;99.90
6307;DHT22;3186;54.062;9.962;2024-02-16T12:43:02;13.90;99.90
6307;DHT22;3186;54.062;9.962;2024-02-16T12:45:28;13.90;99.90
6307;DHT22;3186;54.062;9.962;2024-02-16T12:47:53;14.00;99.90
6307;DHT22;3186;54.062;9.962;2024-02-16T12:50:19;14.20;99.90
6307;DHT22;3186;54.062;9.962;2024-02-16T12:52:45;14.30;99.90
6307;DHT22;3186;54.062;9.962;2024-02-16T12:55:11;14.20;99.90
6307;DHT22;3186;54.062;9.962;2024-02-16T12:57:37;14.10;99.90
6307;DHT22;3186;54.062;9.962;2024-02-16T13:00:04;14.00;99.90
6307;DHT22;3186;54.062;9.962;2024-02-16T13:02:30;14.00;99.90
6307;DHT22;3186;54.062;9.962;2024-02-16T13:04:56;14.10;99.90
6307;DHT22;3186;54.062;9.962;2024-02-16T13:07:23;14.00;99.90
6307;DHT22;3186;54.062;9.962;2024-02-16T13:09:49;14.00;99.90
6307;DHT22;3186;54.062;9.962;2024-02-16T13:12:16;14.00;99.90
6307;DHT22;3186;54.062;9.962;2024-02-16T13:14:42;14.10;99.90
6307;DHT22;3186;54.062;9.962;2024-02-16T13:17:08;14.10;99.90
6307;DHT22;3186;54.062;9.962;2024-02-16T13:19:34;14.00;99.90
6307;DHT22;3186;54.062;9.962;2024-02-16T13:21:59;13.90;99.90
6307;DHT22;3186;54.062;9.962;2024-02-16T13:24:25;14.00;99.90
6307;DHT22;3186;54.062;9.962;2024-02-16T13:26:50;14.10;99.90
6307;DHT22;3186;54.062;9.962;2024-02-16T13:29:16;14.20;99.90
6307;DHT22;3186;54.062;9.962;2024-02-16T13:31:42;14.30;99.90
6307;DHT22;3186;54.062;9.962;2024-02-16T13:34:08;14.30;99.90
6307;DHT22;3186;54.062;9.962;2024-02-16T13:36:33;14.20;99.90
6307;DHT22;3186;54.062;9.962;2024-02-16T13:38:59;14.20;99.90
6307;DHT22;3186;54.062;9.962;2024-02-16T13:41:25;14.20;99.90
6307;DHT22;3186;54.062;9.962;2024-02-16T13:43:51;14.10;99.90
6307;DHT22;3186;54.062;9.962;2024-02-16T13:46:17;14.20;99.90
6307;DHT22;3186;54.062;9.962;2024-02-16T13:48:43;14.20;99.90
6307;DHT22;3186;54.062;9.962;2024-02-16T13:51:08;14.20;99.90
6307;DHT22;3186;54.062;9.962;2024-02-16T13:53:35;14.10;99.90
6307;DHT22;3186;54.062;9.962;2024-02-16T13:56:01;14.10;99.90
6307;DHT22;3186;54.062;9.962;2024-02-16T13:58:30;14.10;99.90
6307;DHT22;3186;54.062;9.962;2024-02-16T14:00:56;14.20;99.90
6307;DHT22;3186;54.062;9.962;2024-02-16T14:03:22;14.20;99.90
6307;DHT22;3186;54.062;9.962;2024-02-16T14:05:48;14.10;99.90
6307;DHT22;3186;54.062;9.962;2024-02-16T14:08:13;14.00;99.90
6307;DHT22;3186;54.062;9.962;2024-02-16T14:10:40;13.90;99.90
6307;DHT22;3186;54.062;9.962;2024-02-16T14:13:06;14.10;99.90
6307;DHT22;3186;54.062;9.962;2024-02-16T14:15:31;14.00;99.90
6307;DHT22;3186;54.062;9.962;2024-02-16T14:17:57;14.00;99.90
6307;DHT22;3186;54.062;9.962;2024-02-16T14:20:23;13.90;99.90
6307;DHT22;3186;54.062;9.962;2024-02-16T14:22:49;13.90;99.90
6307;DHT22;3186;54.062;9.962;2024-02-16T14:25:15;13.90;99.90
6307;DHT22;3186;54.062;9.962;2024-02-16T14:27:41;13.90;99.90
6307;DHT22;3186;54.062;9.962;2024-02-16T14:30:08;13.90;99.90
6307;DHT22;3186;54.062;9.962;2024-02-16T14:32:33;13.90;99.90
6307;DHT22;3186;54.062;9.962;2024-02-16T14:35:00;13.80;99.90
6307;DHT22;3186;54.062;9.962;2024-02-16T14:37:25;13.80;99.90
6307;DHT22;3186;54.062;9.962;2024-02-16T14:39:54;13.80;99.90
6307;DHT22;3186;54.062;9.962;2024-02-16T14:42:23;13.70;99.90
6307;DHT22;3186;54.062;9.962;2024-02-16T14:44:49;13.90;99.90
6307;DHT22;3186;54.062;9.962;2024-02-16T14:47:15;13.60;99.90
6307;DHT22;3186;54.062;9.962;2024-02-16T14:49:40;13.50;99.90
6307;DHT22;3186;54.062;9.962;2024-02-16T14:52:06;13.40;99.90
6307;DHT22;3186;54.062;9.962;2024-02-16T14:54:32;13.40;99.90
6307;DHT22;3186;54.062;9.962;2024-02-16T14:56:58;13.50;99.90
6307;DHT22;3186;54.062;9.962;2024-02-16T14:59:24;13.50;99.90
6307;DHT22;3186;54.062;9.962;2024-02-16T15:01:50;13.50;99.90
6307;DHT22;3186;54.062;9.962;2024-02-16T15:04:17;13.50;99.90
6307;DHT22;3186;54.062;9.962;2024-02-16T15:06:43;13.40;99.90
6307;DHT22;3186;54.062;9.962;2024-02-16T15:09:09;13.30;99.90
6307;DHT22;3186;54.062;9.962;2024-02-16T15:11:35;13.30;99.90
6307;DHT22;3186;54.062;9.962;2024-02-16T15:14:04;13.30;99.90
6307;DHT22;3186;54.062;9.962;2024-02-16T15:16:29;13.30;99.90
6307;DHT22;3186;54.062;9.962;2024-02-16T15:18:56;13.20;99.90
6307;DHT22;3186;54.062;9.962;2024-02-16T15:21:21;13.10;99.90
6307;DHT22;3186;54.062;9.962;2024-02-16T15:23:47;13.10;99.90
6307;DHT22;3186;54.062;9.962;2024-02-16T15:26:13;13.10;99.90
6307;DHT22;3186;54.062;9.962;2024-02-16T15:28:38;13.10;99.90
6307;DHT22;3186;54.062;9.962;2024-02-16T15:31:04;13.00;99.90
6307;DHT22;3186;54.062;9.962;2024-02-16T15:33:30;13.00;99.90
6307;DHT22;3186;54.062;9.962;2024-02-16T15:35:56;13.00;99.90
6307;DHT22;3186;54.062;9.962;2024-02-16T15:38:23;12.90;99.90
6307;DHT22;3186;54.062;9.962;2024-02-16T15:40:50;12.80;99.90
6307;DHT22;3186;54.062;9.962;2024-02-16T15:43:16;12.70;99.90
6307;DHT22;3186;54.062;9.962;2024-02-16T15:45:42;12.70;99.90
6307;DHT22;3186;54.062;9.962;2024-02-16T15:48:11;12.70;99.90
6307;DHT22;3186;54.062;9.962;2024-02-16T15:50:37;12.60;99.90
6307;DHT22;3186;54.062;9.962;2024-02-16T15:53:05;12.60;99.90
6307;DHT22;3186;54.062;9.962;2024-02-16T15:55:30;12.50;99.90
6307;DHT22;3186;54.062;9.962;2024-02-16T15:57:57;12.40;99.90
6307;DHT22;3186;54.062;9.962;2024-02-16T16:00:22;12.30;99.90
6307;DHT22;3186;54.062;9.962;2024-02-16T16:02:49;12.30;99.90
6307;DHT22;3186;54.062;9.962;2024-02-16T16:05:15;12.40;99.90
6307;DHT22;3186;54.062;9.962;2024-02-16T16:07:41;12.50;99.90
6307;DHT22;3186;54.062;9.962;2024-02-16T16:10:07;12.30;99.90